createdAt,value
2019-02-10T00:00:23.453Z,8.90
2019-02-10T00:02:51.941Z,8.90
2019-02-10T00:05:20.169Z,8.90
2019-02-10T00:07:48.390Z,8.90
2019-02-10T00:10:16.679Z,8.90
2019-02-10T00:13:04.565Z,8.90
2019-02-10T00:15:33.033Z,8.90
2019-02-10T00:18:01.385Z,8.90
2019-02-10T00:20:29.629Z,8.90
2019-02-10T00:22:57.905Z,9.00
2019-02-10T00:25:26.543Z,9.00
2019-02-10T00:27:54.799Z,9.00
2019-02-10T00:30:23.055Z,9.00
2019-02-10T00:32:51.313Z,9.10
2019-02-10T00:35:19.591Z,9.10
2019-02-10T00:37:47.825Z,9.10
2019-02-10T00:40:16.209Z,9.10
2019-02-10T00:42:44.452Z,9.10
2019-02-10T00:45:12.674Z,9.10
2019-02-10T00:47:40.946Z,9.10
2019-02-10T00:50:09.183Z,9.10
2019-02-10T00:52:37.414Z,9.00
2019-02-10T00:55:05.661Z,9.10
2019-02-10T00:57:33.982Z,9.10
2019-02-10T01:00:02.640Z,9.10
2019-02-10T01:02:30.856Z,9.10
2019-02-10T01:04:59.093Z,9.10
2019-02-10T01:07:27.438Z,9.10
2019-02-10T01:09:55.690Z,9.00
2019-02-10T01:12:23.949Z,9.10
2019-02-10T01:14:52.217Z,9.10
2019-02-10T01:17:22.846Z,9.10
2019-02-10T01:22:24.603Z,9.10
2019-02-10T01:24:52.847Z,9.10
2019-02-10T01:27:21.138Z,9.10
2019-02-10T01:29:49.377Z,9.00
2019-02-10T01:32:17.761Z,9.00
2019-02-10T01:34:46.010Z,9.00
2019-02-10T01:37:14.242Z,8.90
2019-02-10T01:39:42.729Z,8.90
2019-02-10T01:42:10.971Z,8.90
2019-02-10T01:44:39.204Z,9.00
2019-02-10T01:47:07.458Z,9.10
2019-02-10T01:49:35.745Z,9.10
2019-02-10T01:52:04.361Z,9.10
2019-02-10T01:54:32.612Z,9.10
2019-02-10T01:57:00.882Z,9.10
2019-02-10T01:59:29.320Z,9.20
2019-02-10T02:01:57.921Z,9.20
2019-02-10T02:04:26.155Z,9.10
2019-02-10T02:06:57.844Z,9.10
2019-02-10T02:09:24.371Z,9.10
2019-02-10T02:11:52.598Z,9.10
2019-02-10T02:14:21.066Z,9.10
2019-02-10T02:16:49.629Z,9.10
2019-02-10T02:19:17.987Z,9.10
2019-02-10T02:21:46.514Z,9.10
2019-02-10T02:24:14.738Z,9.10
2019-02-10T02:26:42.962Z,9.10
2019-02-10T02:29:11.200Z,9.10
2019-02-10T02:31:39.440Z,9.10
2019-02-10T02:34:08.008Z,9.00
2019-02-10T02:36:37.982Z,8.90
2019-02-10T02:39:06.240Z,8.80
2019-02-10T02:41:34.454Z,8.60
2019-02-10T02:44:02.681Z,8.60
2019-02-10T02:46:30.906Z,8.40
2019-02-10T02:48:59.321Z,8.30
2019-02-10T02:51:27.660Z,8.30
2019-02-10T02:53:55.911Z,8.10
2019-02-10T02:56:24.138Z,8.10
2019-02-10T02:58:52.383Z,8.00
2019-02-10T03:01:20.611Z,8.00
2019-02-10T03:03:49.031Z,7.90
2019-02-10T03:06:17.270Z,8.00
2019-02-10T03:08:45.486Z,7.90
2019-02-10T03:11:13.721Z,7.80
2019-02-10T03:13:41.967Z,7.70
2019-02-10T03:16:10.369Z,7.70
2019-02-10T03:18:38.788Z,7.70
2019-02-10T03:21:07.020Z,7.60
2019-02-10T03:23:35.254Z,7.60
2019-02-10T03:26:03.508Z,7.50
2019-02-10T03:28:31.793Z,7.50
2019-02-10T03:31:00.207Z,7.50
2019-02-10T03:33:28.726Z,7.50
2019-02-10T03:35:57.026Z,7.50
2019-02-10T03:38:25.264Z,7.50
2019-02-10T03:40:53.534Z,7.40
2019-02-10T03:43:21.800Z,7.40
2019-02-10T03:45:50.303Z,7.30
2019-02-10T03:48:18.743Z,7.30
2019-02-10T03:50:47.001Z,7.20
2019-02-10T03:53:15.445Z,7.20
2019-02-10T03:55:43.747Z,7.20
2019-02-10T03:58:11.983Z,7.20
2019-02-10T04:00:40.223Z,7.20
2019-02-10T04:03:08.477Z,7.20
2019-02-10T04:05:37.249Z,7.20
2019-02-10T04:08:05.484Z,7.20
2019-02-10T04:10:33.781Z,7.10
2019-02-10T04:13:02.007Z,7.10
2019-02-10T04:15:30.311Z,7.10
2019-02-10T04:17:58.926Z,7.00
2019-02-10T04:20:27.156Z,7.00
2019-02-10T04:22:55.391Z,7.00
2019-02-10T04:25:23.592Z,7.00
2019-02-10T04:27:52.162Z,7.00
2019-02-10T04:30:20.457Z,7.00
2019-02-10T04:32:48.688Z,7.00
2019-02-10T04:35:16.908Z,6.90
2019-02-10T04:37:46.474Z,7.00
2019-02-10T04:40:14.942Z,6.90
2019-02-10T04:42:43.386Z,6.90
2019-02-10T04:45:11.789Z,6.90
2019-02-10T04:47:40.033Z,6.90
2019-02-10T04:50:08.343Z,6.90
2019-02-10T04:52:36.591Z,6.90
2019-02-10T04:55:06.083Z,6.80
2019-02-10T04:57:34.329Z,6.80
2019-02-10T05:00:02.697Z,6.80
2019-02-10T05:02:31.218Z,6.80
2019-02-10T05:04:59.550Z,6.90
2019-02-10T05:07:27.786Z,6.90
2019-02-10T05:09:56.186Z,6.90
2019-02-10T05:12:24.627Z,6.90
2019-02-10T05:14:53.108Z,6.90
2019-02-10T05:17:21.367Z,6.90
2019-02-10T05:19:49.719Z,6.90
2019-02-10T05:22:17.961Z,6.90
2019-02-10T05:24:46.410Z,6.90
2019-02-10T05:27:14.805Z,7.00
2019-02-10T05:29:43.114Z,7.00
2019-02-10T05:32:11.735Z,7.00
2019-02-10T05:34:40.894Z,7.00
2019-02-10T05:37:09.136Z,7.00
2019-02-10T05:39:39.026Z,7.00
2019-02-10T05:42:09.030Z,7.10
2019-02-10T05:44:37.441Z,7.10
2019-02-10T05:47:05.681Z,7.10
2019-02-10T05:49:33.910Z,7.10
2019-02-10T05:52:02.146Z,7.10
2019-02-10T05:54:30.385Z,7.20
2019-02-10T05:56:58.709Z,7.20
2019-02-10T05:59:26.937Z,7.20
2019-02-10T06:02:22.062Z,7.30
2019-02-10T06:04:50.295Z,7.40
2019-02-10T06:07:20.403Z,7.40
2019-02-10T06:09:49.756Z,7.40
2019-02-10T06:12:17.985Z,7.40
2019-02-10T06:14:46.251Z,7.50
2019-02-10T06:17:14.550Z,7.50
2019-02-10T06:19:42.817Z,7.50
2019-02-10T06:22:11.053Z,7.50
2019-02-10T06:24:39.291Z,7.50
2019-02-10T06:27:07.755Z,7.60
2019-02-10T06:29:36.517Z,7.60
2019-02-10T06:32:04.783Z,7.60
2019-02-10T06:34:33.001Z,7.60
2019-02-10T06:37:01.230Z,7.60
2019-02-10T06:39:29.491Z,7.70
2019-02-10T06:41:58.484Z,7.60
2019-02-10T06:44:26.841Z,7.70
2019-02-10T06:46:55.116Z,7.70
2019-02-10T06:49:23.352Z,7.70
2019-02-10T06:51:51.573Z,7.80
2019-02-10T06:54:19.904Z,7.80
2019-02-10T06:56:48.138Z,7.80
2019-02-10T06:59:18.004Z,7.80
2019-02-10T07:01:59.785Z,7.90
2019-02-10T07:04:28.058Z,7.90
2019-02-10T07:06:56.558Z,7.90
2019-02-10T07:09:26.263Z,7.90
2019-02-10T07:11:54.516Z,8.00
2019-02-10T07:14:28.789Z,8.00
2019-02-10T07:17:06.245Z,8.00
2019-02-10T07:20:12.670Z,8.10
2019-02-10T07:22:44.195Z,8.10
2019-02-10T07:25:15.681Z,8.20
2019-02-10T07:28:20.496Z,8.30
2019-02-10T07:30:52.001Z,8.30
2019-02-10T07:33:29.766Z,8.40
2019-02-10T07:36:06.955Z,8.50
2019-02-10T07:38:53.596Z,8.70
2019-02-10T07:41:49.602Z,8.90
2019-02-10T07:44:24.107Z,8.90
2019-02-10T07:46:58.313Z,8.90
2019-02-10T07:49:38.558Z,9.00
2019-02-10T07:52:12.504Z,9.00
2019-02-10T07:54:44.130Z,9.10
2019-02-10T07:57:32.211Z,9.10
2019-02-10T08:00:14.996Z,9.20
2019-02-10T08:02:58.466Z,9.20
2019-02-10T08:05:36.106Z,9.20
2019-02-10T08:08:19.777Z,9.30
2019-02-10T08:10:54.494Z,9.30
2019-02-10T08:13:26.041Z,9.40
2019-02-10T08:15:57.567Z,9.40
2019-02-10T08:18:31.675Z,9.50
2019-02-10T08:21:09.054Z,9.60
2019-02-10T08:23:43.453Z,9.70
2019-02-10T08:26:35.975Z,9.70
2019-02-10T08:29:28.444Z,9.80
2019-02-10T08:32:08.648Z,9.80
2019-02-10T08:34:46.233Z,9.90
2019-02-10T08:37:23.363Z,9.90
2019-02-10T08:40:06.684Z,9.90
2019-02-10T08:42:41.985Z,9.90
2019-02-10T08:45:13.509Z,10.00
2019-02-10T08:48:00.074Z,10.00
2019-02-10T08:50:40.411Z,10.00
2019-02-10T08:53:11.948Z,10.00
2019-02-10T08:55:40.208Z,10.10
2019-02-10T08:58:09.620Z,10.20
2019-02-10T09:00:38.008Z,10.20
2019-02-10T09:03:06.323Z,10.20
2019-02-10T09:05:34.880Z,10.20
2019-02-10T09:08:03.131Z,10.20
2019-02-10T09:10:31.531Z,10.20
2019-02-10T09:13:00.244Z,10.20
2019-02-10T09:15:28.488Z,10.20
2019-02-10T09:17:58.319Z,10.10
2019-02-10T09:20:27.501Z,10.20
2019-02-10T09:22:55.717Z,10.20
2019-02-10T09:25:23.976Z,10.20
2019-02-10T09:27:52.437Z,10.30
2019-02-10T09:30:20.729Z,10.20
2019-02-10T09:32:48.949Z,10.20
2019-02-10T09:35:17.804Z,10.10
2019-02-10T09:37:46.142Z,10.10
2019-02-10T09:40:14.432Z,10.20
2019-02-10T09:42:42.877Z,10.10
2019-02-10T09:45:12.398Z,10.10
2019-02-10T09:47:42.643Z,10.10
2019-02-10T09:50:14.046Z,10.00
2019-02-10T09:52:42.362Z,10.00
2019-02-10T09:55:10.656Z,10.00
2019-02-10T09:57:39.087Z,9.90
2019-02-10T10:00:12.876Z,9.90
2019-02-10T10:02:41.177Z,9.90
2019-02-10T10:05:11.589Z,9.90
2019-02-10T10:07:39.813Z,9.90
2019-02-10T10:10:12.918Z,9.80
2019-02-10T10:12:42.073Z,9.80
2019-02-10T10:15:13.528Z,9.70
2019-02-10T10:17:41.823Z,9.70
2019-02-10T10:20:16.405Z,9.70
2019-02-10T10:22:46.266Z,9.70
2019-02-10T10:25:14.627Z,9.70
2019-02-10T10:27:43.069Z,9.60
2019-02-10T10:30:16.610Z,9.70
2019-02-10T10:32:44.882Z,9.70
2019-02-10T10:35:13.351Z,9.60
2019-02-10T10:37:41.572Z,9.60
2019-02-10T10:40:12.367Z,9.60
2019-02-10T10:42:40.793Z,9.60
2019-02-10T10:45:11.841Z,9.70
2019-02-10T10:47:40.889Z,9.60
2019-02-10T10:50:12.245Z,9.60
2019-02-10T10:52:40.563Z,9.70
2019-02-10T10:55:13.946Z,9.70
2019-02-10T10:57:42.459Z,9.70
2019-02-10T11:00:14.717Z,9.70
2019-02-10T11:02:42.947Z,9.70
2019-02-10T11:05:11.415Z,9.80
2019-02-10T11:07:39.680Z,9.80
2019-02-10T11:10:13.931Z,9.70
2019-02-10T11:12:42.279Z,9.70
2019-02-10T11:15:12.533Z,9.70
2019-02-10T11:17:40.787Z,9.70
2019-02-10T11:20:11.200Z,9.70
2019-02-10T11:22:39.511Z,9.70
2019-02-10T11:25:10.797Z,9.70
2019-02-10T11:27:39.156Z,9.70
2019-02-10T11:30:10.854Z,9.70
2019-02-10T11:32:39.084Z,9.70
2019-02-10T11:35:09.297Z,9.70
2019-02-10T11:37:37.708Z,9.70
2019-02-10T11:40:11.394Z,9.70
2019-02-10T11:42:39.717Z,9.70
2019-02-10T11:45:10.523Z,9.80
2019-02-10T11:47:38.825Z,9.80
2019-02-10T11:50:10.066Z,9.70
2019-02-10T11:52:38.320Z,9.80
2019-02-10T11:55:07.405Z,9.70
2019-02-10T11:57:35.691Z,9.70
2019-02-10T12:00:07.731Z,9.60
2019-02-10T12:02:37.975Z,9.60
2019-02-10T12:05:09.030Z,9.60
2019-02-10T12:07:37.272Z,9.60
2019-02-10T12:10:10.849Z,9.60
2019-02-10T12:12:39.121Z,9.60
2019-02-10T12:15:14.720Z,9.50
2019-02-10T12:17:43.046Z,9.50
2019-02-10T12:20:13.552Z,9.50
2019-02-10T12:22:49.838Z,9.40
2019-02-10T12:25:12.453Z,9.40
2019-02-10T12:27:40.679Z,9.30
2019-02-10T12:30:15.392Z,9.30
2019-02-10T12:32:43.919Z,9.20
2019-02-10T12:35:12.570Z,9.20
2019-02-10T12:37:41.016Z,9.10
2019-02-10T12:40:10.682Z,9.10
2019-02-10T12:42:39.635Z,9.10
2019-02-10T12:45:13.632Z,9.10
2019-02-10T12:47:43.674Z,9.00
2019-02-10T12:50:15.779Z,9.10
2019-02-10T12:52:44.694Z,9.10
2019-02-10T12:55:13.084Z,9.00
2019-02-10T12:57:42.492Z,9.00
2019-02-10T13:00:16.769Z,9.00
2019-02-10T13:02:45.007Z,8.90
2019-02-10T13:05:14.403Z,8.80
2019-02-10T13:07:42.724Z,8.80
2019-02-10T13:10:13.062Z,8.70
2019-02-10T13:12:41.340Z,8.70
2019-02-10T13:15:11.183Z,8.70
2019-02-10T13:17:39.453Z,8.80
2019-02-10T13:20:13.395Z,9.20
2019-02-10T13:22:42.043Z,9.30
2019-02-10T13:25:14.947Z,9.50
2019-02-10T13:27:44.335Z,9.80
2019-02-10T13:30:16.765Z,10.20
2019-02-10T13:32:45.126Z,10.00
2019-02-10T13:35:13.529Z,10.00
2019-02-10T13:37:41.946Z,9.80
2019-02-10T13:40:23.181Z,9.70
2019-02-10T13:42:52.207Z,9.50
2019-02-10T13:45:21.326Z,9.30
2019-02-10T13:47:51.474Z,9.30
2019-02-10T13:50:20.423Z,9.20
2019-02-10T13:52:48.697Z,9.20
2019-02-10T13:55:17.264Z,9.20
2019-02-10T13:57:45.655Z,9.10
2019-02-10T14:00:26.290Z,9.20
2019-02-10T14:02:58.635Z,9.20
2019-02-10T14:05:27.066Z,9.20
2019-02-10T14:07:55.866Z,9.10
2019-02-10T14:10:25.939Z,9.10
2019-02-10T14:12:55.755Z,9.10
2019-02-10T14:15:24.316Z,9.20
2019-02-10T14:17:52.790Z,9.20
2019-02-10T14:20:22.328Z,9.20
2019-02-10T14:22:50.812Z,9.10
2019-02-10T14:25:19.781Z,9.10
2019-02-10T14:27:48.007Z,9.10
2019-02-10T14:30:18.582Z,9.10
2019-02-10T14:32:47.051Z,9.00
2019-02-10T14:35:15.343Z,9.00
2019-02-10T14:37:43.661Z,8.90
2019-02-10T14:40:12.132Z,8.70
2019-02-10T14:42:40.365Z,8.60
2019-02-10T14:45:13.568Z,8.50
2019-02-10T14:47:41.918Z,8.40
2019-02-10T14:50:12.916Z,8.30
2019-02-10T14:52:41.275Z,8.20
2019-02-10T14:55:09.516Z,8.20
2019-02-10T14:57:39.486Z,8.10
2019-02-10T15:00:11.235Z,8.10
2019-02-10T15:02:39.476Z,8.00
2019-02-10T15:05:08.089Z,7.90
2019-02-10T15:07:36.437Z,7.90
2019-02-10T15:10:08.213Z,7.90
2019-02-10T15:12:36.555Z,7.90
2019-02-10T15:15:07.832Z,7.90
2019-02-10T15:17:36.189Z,7.80
2019-02-10T15:20:08.611Z,7.90
2019-02-10T15:22:36.919Z,7.80
2019-02-10T15:25:08.096Z,7.90
2019-02-10T15:27:36.472Z,7.80
2019-02-10T15:30:07.575Z,7.90
2019-02-10T15:32:37.933Z,7.90
2019-02-10T15:35:06.247Z,7.90
2019-02-10T15:37:34.560Z,8.00
2019-02-10T15:40:03.175Z,8.00
2019-02-10T15:42:33.793Z,8.00
2019-02-10T15:45:02.013Z,8.00
2019-02-10T15:47:30.594Z,7.90
2019-02-10T15:50:00.215Z,7.90
2019-02-10T15:52:28.613Z,7.90
2019-02-10T15:54:57.560Z,7.90
2019-02-10T15:57:25.808Z,7.90
2019-02-10T15:59:54.986Z,7.90
2019-02-10T16:02:23.378Z,7.90
2019-02-10T16:04:51.692Z,7.90
2019-02-10T16:07:20.019Z,7.90
2019-02-10T16:09:48.292Z,7.80
2019-02-10T16:12:18.077Z,7.80
2019-02-10T16:14:46.373Z,7.80
2019-02-10T16:17:16.350Z,7.70
2019-02-10T16:19:44.664Z,7.70
2019-02-10T16:22:12.916Z,7.60
2019-02-10T16:24:41.174Z,7.60
2019-02-10T16:27:09.424Z,7.50
2019-02-10T16:29:37.779Z,7.50
2019-02-10T16:32:07.339Z,7.60
2019-02-10T16:34:35.716Z,7.50
2019-02-10T16:37:05.033Z,7.50
2019-02-10T16:39:33.448Z,7.40
2019-02-10T16:42:02.628Z,7.40
2019-02-10T16:44:30.916Z,7.40
2019-02-10T16:46:59.185Z,7.40
2019-02-10T16:49:27.728Z,7.40
2019-02-10T16:51:55.960Z,7.30
2019-02-10T16:54:24.364Z,7.40
2019-02-10T16:56:52.811Z,7.40
2019-02-10T16:59:21.494Z,7.30
2019-02-10T17:01:50.461Z,7.30
2019-02-10T17:04:18.805Z,7.30
2019-02-10T17:06:47.108Z,7.30
2019-02-10T17:09:15.373Z,7.30
2019-02-10T17:11:44.413Z,7.30
2019-02-10T17:14:13.478Z,7.30
2019-02-10T17:16:42.450Z,7.30
2019-02-10T17:19:11.418Z,7.30
2019-02-10T17:21:39.815Z,7.30
2019-02-10T17:24:08.173Z,7.20
2019-02-10T17:26:36.545Z,7.20
2019-02-10T17:29:04.795Z,7.10
2019-02-10T17:31:33.085Z,7.00
2019-02-10T17:34:01.319Z,7.00
2019-02-10T17:36:29.567Z,7.00
2019-02-10T17:38:57.968Z,7.00
2019-02-10T17:41:27.147Z,7.00
2019-02-10T17:43:55.398Z,6.90
2019-02-10T17:46:23.710Z,6.90
2019-02-10T17:48:52.025Z,6.90
2019-02-10T17:51:20.271Z,6.90
2019-02-10T17:53:48.787Z,6.90
2019-02-10T17:56:17.113Z,6.90
2019-02-10T17:58:48.008Z,6.90
2019-02-10T18:01:16.380Z,6.90
2019-02-10T18:03:44.675Z,6.80
2019-02-10T18:06:12.964Z,6.80
2019-02-10T18:08:41.411Z,6.70
2019-02-10T18:11:09.747Z,6.80
2019-02-10T18:13:38.063Z,6.80
2019-02-10T18:16:08.018Z,6.70
2019-02-10T18:18:45.445Z,6.70
2019-02-10T18:21:33.539Z,6.60
2019-02-10T18:24:12.556Z,6.60
2019-02-10T18:26:48.056Z,6.60
2019-02-10T18:29:18.007Z,6.50
2019-02-10T18:32:03.179Z,6.40
2019-02-10T18:34:51.263Z,6.40
2019-02-10T18:37:23.741Z,6.40
2019-02-10T18:39:59.692Z,6.40
2019-02-10T18:42:29.697Z,6.40
2019-02-10T18:45:02.148Z,6.40
2019-02-10T18:47:34.984Z,6.40
2019-02-10T18:50:05.278Z,6.40
2019-02-10T18:52:35.260Z,6.40
2019-02-10T18:55:14.430Z,6.40
2019-02-10T18:57:44.412Z,6.30
2019-02-10T19:00:26.627Z,6.50
2019-02-10T19:02:58.593Z,6.40
2019-02-10T19:05:31.332Z,6.30
2019-02-10T19:08:07.340Z,6.30
2019-02-10T19:10:37.257Z,6.20
2019-02-10T19:13:13.024Z,6.20
2019-02-10T19:15:48.627Z,6.20
2019-02-10T19:18:31.047Z,6.20
2019-02-10T19:21:12.935Z,6.10
2019-02-10T19:23:52.395Z,6.10
2019-02-10T19:26:31.016Z,6.10
2019-02-10T19:29:15.764Z,6.00
2019-02-10T19:31:45.660Z,5.90
2019-02-10T19:34:18.262Z,5.80
2019-02-10T19:36:48.123Z,5.80
2019-02-10T19:39:23.935Z,5.70
2019-02-10T19:42:05.896Z,5.60
2019-02-10T19:44:38.648Z,5.60
2019-02-10T19:47:11.436Z,5.60
2019-02-10T19:49:51.183Z,5.50
2019-02-10T19:52:36.116Z,5.50
2019-02-10T19:55:13.237Z,5.50
2019-02-10T19:57:59.263Z,5.40
2019-02-10T20:00:35.228Z,5.40
2019-02-10T20:03:05.225Z,5.40
2019-02-10T20:05:40.978Z,5.30
2019-02-10T20:08:16.488Z,5.30
2019-02-10T20:10:48.923Z,5.30
2019-02-10T20:13:18.916Z,5.30
2019-02-10T20:15:48.855Z,5.20
2019-02-10T20:18:35.158Z,5.20
2019-02-10T20:21:05.098Z,5.20
2019-02-10T20:23:46.932Z,5.20
2019-02-10T20:26:16.905Z,5.20
2019-02-10T20:28:49.850Z,5.20
2019-02-10T20:31:38.064Z,5.30
2019-02-10T20:34:16.766Z,5.30
2019-02-10T20:36:55.838Z,5.10
2019-02-10T20:39:25.713Z,5.10
2019-02-10T20:42:11.893Z,5.00
2019-02-10T20:44:38.513Z,5.00
2019-02-10T20:47:08.550Z,4.90
2019-02-10T20:49:41.594Z,4.90
2019-02-10T20:52:11.540Z,4.90
2019-02-10T20:54:50.409Z,4.80
2019-02-10T20:57:20.371Z,4.70
2019-02-10T20:59:53.252Z,4.60
2019-02-10T21:02:23.154Z,4.60
2019-02-10T21:05:09.391Z,4.60
2019-02-10T21:07:45.486Z,4.60
2019-02-10T21:10:21.381Z,4.50
2019-02-10T21:12:54.363Z,4.50
2019-02-10T21:15:40.837Z,4.40
2019-02-10T21:18:13.699Z,4.40
2019-02-10T21:20:49.902Z,4.40
2019-02-10T21:23:19.816Z,4.40
2019-02-10T21:25:56.028Z,4.30
2019-02-10T21:28:25.948Z,4.30
2019-02-10T21:31:01.718Z,4.30
2019-02-10T21:33:48.104Z,4.30
2019-02-10T21:36:24.053Z,4.10
2019-02-10T21:39:02.929Z,4.10
2019-02-10T21:41:32.889Z,4.00
2019-02-10T21:44:02.839Z,4.00
2019-02-10T21:46:41.499Z,4.00
2019-02-10T21:49:09.759Z,3.90
2019-02-10T21:51:37.994Z,3.90
2019-02-10T21:54:06.265Z,3.80
2019-02-10T21:56:34.592Z,3.80
2019-02-10T21:59:02.816Z,3.80
2019-02-10T22:01:31.129Z,3.80
2019-02-10T22:03:59.426Z,3.70
2019-02-10T22:06:28.124Z,3.70
2019-02-10T22:08:56.395Z,3.70
2019-02-10T22:11:24.765Z,3.70
2019-02-10T22:13:53.008Z,3.70
2019-02-10T22:16:21.281Z,3.70
2019-02-10T22:18:49.613Z,3.70
2019-02-10T22:21:17.882Z,3.60
2019-02-10T22:23:46.619Z,3.60
2019-02-10T22:26:14.910Z,3.70
2019-02-10T22:28:43.142Z,3.70
2019-02-10T22:31:18.644Z,3.70
2019-02-10T22:33:41.501Z,3.70
2019-02-10T22:36:10.151Z,3.70
2019-02-10T22:38:38.413Z,3.70
2019-02-10T22:41:26.240Z,3.80
2019-02-10T22:43:54.641Z,3.80
2019-02-10T22:46:22.885Z,3.80
2019-02-10T22:48:51.333Z,3.80
2019-02-10T22:51:19.798Z,3.80
2019-02-10T22:53:48.910Z,3.80
2019-02-10T22:56:17.177Z,3.90
2019-02-10T22:58:45.760Z,3.90
2019-02-10T23:01:14.483Z,3.90
2019-02-10T23:03:42.792Z,3.90
2019-02-10T23:06:11.079Z,3.80
2019-02-10T23:08:39.366Z,3.90
2019-02-10T23:11:07.604Z,3.90
2019-02-10T23:13:35.975Z,3.90
2019-02-10T23:16:04.209Z,3.90
2019-02-10T23:18:32.473Z,3.90
2019-02-10T23:21:01.220Z,3.90
2019-02-10T23:23:29.726Z,3.90
2019-02-10T23:25:57.950Z,4.00
2019-02-10T23:28:26.230Z,4.00
2019-02-10T23:30:54.460Z,4.00
2019-02-10T23:33:22.702Z,4.10
2019-02-10T23:35:51.053Z,4.10
2019-02-10T23:38:19.321Z,4.10
2019-02-10T23:40:47.554Z,4.10
2019-02-10T23:43:15.836Z,4.10
2019-02-10T23:45:44.571Z,4.10
2019-02-10T23:48:12.865Z,4.20
2019-02-10T23:50:41.087Z,4.20
2019-02-10T23:53:09.594Z,4.20
2019-02-10T23:55:37.804Z,4.20
2019-02-10T23:58:06.034Z,4.20
